Aérodrome :
LOGIN :

S'inscrire | Disclaimer

   EN    FR    IT 

 










Légende :    VFR   VFR Marginal   IFR   IFR Intensif   IFR Très Intensif
Visi : 
Plafond : 
>= 8 km
>= 3000ft
5 à 8 km
1000 à 3000 ft
1500m à 5 km
500 à 1000 ft
800 à 1500m
200 à 500 ft
< 800m
< 200 ft
Symboles :   Orages  Brouillard  Fortes neiges  Fortes précipitations  Vent > 20 kt
SIGMETs :   Divers  Orages  Givrage  Turbulence  Onde Orograph.  Cendres Volcan.






- Altitude de l'aérodrome : 233 ft
- Code IATA : REU


LERS - Reus Tarragona

DERNIER METAR :
  • 281300Z 15007KT 080V210 9999 FEW025 BKN032 25/19 Q1020

METARs EXPIRÉS :
  • 281230Z 15007KT 110V200 9999 FEW025 BKN032 25/19 Q1021
  • 281200Z 15008KT 100V190 9999 FEW026 SCT032 25/18 Q1021
  • 281130Z 15007KT 080V190 9999 FEW025 SCT032 25/18 Q1021
  • 281100Z 15008KT 090V200 9999 FEW025 BKN032 26/18 Q1021
  • 281030Z 13007KT 080V200 9999 FEW023 BKN032 25/19 Q1022

TAF TAF LERS
Valide du 28 à 09h jusqu'au 29 à 09h UTC


280800Z 2809/2909 16010KT 9999 SCT020 TX27/2813Z TN17/2905Z
PROB30
TEMPO 2809/2812 RADZ
BECMG 2818/2820 VRB04KT
BECMG 2904/2906 29010KT



MET'MAP, la Météo Aéronautique d'un coup d'oeil ! - Copyright ORBIFLY Décembre 2007 - Disclaimer

ORBIFLY MET'MAP TEAM :

Programmation & Développement : Alexandra Zaïnal
Sur une idée originale de : Baudouin d'Aumeries
Assistance à la programmation : Marc-Olivier Méhu
Soutien technique & logistique : Manuel Goepfert

Contact : metmap@orbifly.com




SOURCES & CREDITS :

   NOAA